Terminal Aerodrome Forecast
Issued by NWS

Home | Current Version | Previous Version | Text Only | Print | Product List | Glossary On
Versions: 1 2 3 4 5 6 7 8 9 10 11 12 13 14 15
000
FTUS45 KFGZ 210500
TAFPRC
TAF
KPRC 210520Z 2106/2206 19006KT P6SM FEW250
     FM211600 VRB05KT P6SM SCT100
     FM211900 21009G16KT P6SM SCT100
     FM220200 20005KT P6SM SKC=

USA.gov is the U.S. government's official web portal to all federal, state and local government web resources and services.